MSC Levina — 3FJR8 — position and weather

sailwx.info

Track history (hours):
 
Tides and Currents Weather Stations Pressure Air Temp Water Temp Dewpoint Dewpoint Depression Visibility Wind Speed Wind Dir Waves Ship Positions

MSC Levina

Last reported at 2018-Feb-10 13:13 UTC. Time now 2018-Feb-20 19:31 UTC.
Position N 33°39' E 129°49'.
Warning: this ship's position is 10 days out of date.

Length 227.6 m; beam 32.2 m; draft 12.1 m.

Type: Ship. MMSI: 355609000.

Date/timePositionNaut miles runAvg speedWind from/ knotsBaromVisibWave heightAir tempDewpointWater temp
2018-Feb-10 13:13N 33°39' E 129°49'313.8
2018-Feb-10 13:00N 33°40' E 129°52'713.7
2018-Feb-10 12:30N 33°43' E 129°60'713.3
2018-Feb-10 12:00N 33°45' E 130°08'612.5
2018-Feb-10 11:30N 33°43' E 130°15'713.4
2018-Feb-10 11:00N 33°38' E 130°20'3 6.7
2018-Feb-10 10:30N 33°39' E 130°24'0 0.1
2018-Feb-10 09:58N 33°39' E 130°24'0 0.0
2018-Feb-10 09:28N 33°39' E 130°24'0 0.0
2018-Feb-10 08:58N 33°39' E 130°24'0 0.0
2018-Feb-10 08:28N 33°39' E 130°24'0 0.0
2018-Feb-10 07:58N 33°39' E 130°24'0 0.0
2018-Feb-10 07:25N 33°39' E 130°24'0 0.0
2018-Feb-10 06:58N 33°39' E 130°24'0 0.0
2018-Feb-10 06:28N 33°39' E 130°24'0 0.0
2018-Feb-10 05:58N 33°39' E 130°24'0 0.0
2018-Feb-10 05:28N 33°39' E 130°24'0 0.0
2018-Feb-10 04:55N 33°39' E 130°24'0 0.0
2018-Feb-10 04:28N 33°39' E 130°24'0 0.0
2018-Feb-10 03:58N 33°39' E 130°24'0 0.0
2018-Feb-10 03:28N 33°39' E 130°24'0 0.0
2018-Feb-10 02:58N 33°39' E 130°24'0 0.0
2018-Feb-10 02:28N 33°39' E 130°24'0 0.0
2018-Feb-10 01:58N 33°39' E 130°24'0 0.0
2018-Feb-10 01:28N 33°39' E 130°24'0 0.0
2018-Feb-10 00:58N 33°39' E 130°24'0 0.0
2018-Feb-10 00:28N 33°39' E 130°24'1 2.2
2018-Feb-10 00:00N 33°39' E 130°23'5 9.2
2018-Feb-09 23:31N 33°39' E 130°18'3 5.8
2018-Feb-09 23:00N 33°41' E 130°16'1 5.7
2018-Feb-09 22:46N 33°43' E 130°15'2 7.5
2018-Feb-09 22:31N 33°44' E 130°14'23 9.3
2018-Feb-09 20:00N 34°02' E 130°33'1111.2
2018-Feb-09 19:01N 34°02' E 130°46'611.0
2018-Feb-09 18:30N 34°00' E 130°52'5 9.5
2018-Feb-09 18:00N 33°55' E 130°53'8 8.0
2018-Feb-09 17:00N 33°58' E 131°02'10 9.7
2018-Feb-09 16:01N 33°52' E 131°12'2214.5
2018-Feb-09 14:31N 33°47' E 131°38'713.6
2018-Feb-09 14:01N 33°44' E 131°45'714.5
2018-Feb-09 13:31N 33°38' E 131°48'714.7
2018-Feb-09 13:01N 33°31' E 131°52'35815.2
2018-Feb-08 13:30N 34°32' E 138°58'1818.4
2018-Feb-08 12:30N 34°46' E 139°13'3718.4
2018-Feb-08 10:30N 35°11' E 139°46'510.7
2018-Feb-08 10:00N 35°17' E 139°45'611.0
2018-Feb-08 09:30N 35°22' E 139°42'611.0
2018-Feb-08 09:00N 35°27' E 139°43'1 0.2
2018-Feb-08 01:30N 35°28' E 139°42'0 0.0
2018-Feb-08 01:00N 35°28' E 139°42'0 0.0
2018-Feb-08 00:30N 35°28' E 139°42'0 0.0
2018-Feb-08 00:00N 35°28' E 139°42'0 0.0
2018-Feb-07 23:30N 35°28' E 139°42'0 0.0
2018-Feb-07 23:00N 35°28' E 139°42'1 1.4
2018-Feb-07 22:30N 35°28' E 139°42'2 3.2
2018-Feb-07 21:53N 35°26' E 139°44'0 0.2
2018-Feb-07 21:29N 35°26' E 139°44'11 0.9
2018-Feb-07 09:30N 35°37' E 139°47'0 0.0
2018-Feb-07 09:00N 35°37' E 139°47'0 0.0
2018-Feb-07 08:24N 35°37' E 139°47'0 0.0
2018-Feb-07 08:00N 35°37' E 139°47'0 0.0
2018-Feb-07 07:30N 35°37' E 139°47'0 0.0
2018-Feb-07 06:57N 35°37' E 139°47'0 0.0
2018-Feb-07 06:30N 35°37' E 139°47'0 0.0
2018-Feb-07 05:57N 35°37' E 139°47'0 0.1
2018-Feb-07 05:30N 35°37' E 139°47'0 0.1
2018-Feb-07 04:57N 35°37' E 139°47'0 0.0
2018-Feb-07 04:15N 35°37' E 139°47'0 0.0
2018-Feb-07 03:57N 35°37' E 139°47'0 0.0
2018-Feb-07 03:27N 35°37' E 139°47'0 0.0
2018-Feb-07 02:57N 35°37' E 139°47'0 0.0
2018-Feb-07 02:21N 35°37' E 139°47'0 0.1
2018-Feb-07 01:57N 35°37' E 139°47'0 0.0
2018-Feb-07 01:27N 35°37' E 139°47'0 0.1
2018-Feb-07 01:00N 35°37' E 139°47'0 0.0
2018-Feb-07 00:30N 35°37' E 139°47'0 0.8
2018-Feb-07 00:00N 35°36' E 139°47'4 7.8
2018-Feb-06 23:30N 35°33' E 139°50'510.7
2018-Feb-06 23:00N 35°28' E 139°51'714.6
2018-Feb-06 22:30N 35°22' E 139°45'611.5
2018-Feb-06 22:00N 35°17' E 139°46'612.1
2018-Feb-06 21:30N 35°11' E 139°46'510.1
2018-Feb-06 21:00N 35°05' E 139°45'510.1
2018-Feb-06 20:30N 35°02' E 139°42'510.5
2018-Feb-06 20:00N 34°58' E 139°36'713.8
2018-Feb-06 19:30N 34°55' E 139°29'915.9
2018-Feb-06 18:58N 34°50' E 139°21'716.0
2018-Feb-06 18:30N 34°45' E 139°15'916.2
2018-Feb-06 17:58N 34°39' E 139°07'816.2
2018-Feb-06 17:28N 34°33' E 138°59'715.2
2018-Feb-06 17:00N 34°31' E 138°51'815.3
2018-Feb-06 16:28N 34°34' E 138°42'715.1
2018-Feb-06 16:00N 34°35' E 138°33'815.4
2018-Feb-06 15:30N 34°37' E 138°24'814.8
2018-Feb-06 14:56N 34°39' E 138°14'1 3.1
2018-Feb-06 14:29N 34°38' E 138°13'0 0.0
2018-Feb-06 09:03N 34°37' E 138°13'0 1.4
2018-Feb-06 09:00N 34°38' E 138°13'2 3.5
2018-Feb-06 08:27N 34°39' E 138°15'2 5.1
2018-Feb-06 08:00N 34°38' E 138°17'4 8.6
2018-Feb-06 07:30N 34°34' E 138°16'610.8
2018-Feb-06 07:00N 34°30' E 138°11'714.2
2018-Feb-06 06:30N 34°26' E 138°05'612.0
2018-Feb-06 06:00N 34°22' E 137°59'  
Track history (hours):
 
Tides and Currents Weather Stations Pressure Air Temp Water Temp Dewpoint Dewpoint Depression Visibility Wind Speed Wind Dir Waves Ship Positions

MSC Levina

Last reported at 2018-Feb-10 13:13 UTC. Time now 2018-Feb-20 19:31 UTC.
Position N 33°39' E 129°49'.
Warning: this ship's position is 10 days out of date.

Length 227.6 m; beam 32.2 m; draft 12.1 m.

Type: Ship. MMSI: 355609000.

Date/timePositionNaut miles runAvg speedWind from/ knotsBaromVisibWave heightAir tempDewpointWater temp
2018-Feb-10 13:13N 33°39' E 129°49'313.8
2018-Feb-10 13:00N 33°40' E 129°52'713.7
2018-Feb-10 12:30N 33°43' E 129°60'713.3
2018-Feb-10 12:00N 33°45' E 130°08'612.5
2018-Feb-10 11:30N 33°43' E 130°15'713.4
2018-Feb-10 11:00N 33°38' E 130°20'3 6.7
2018-Feb-10 10:30N 33°39' E 130°24'0 0.1
2018-Feb-10 09:58N 33°39' E 130°24'0 0.0
2018-Feb-10 09:28N 33°39' E 130°24'0 0.0
2018-Feb-10 08:58N 33°39' E 130°24'0 0.0
2018-Feb-10 08:28N 33°39' E 130°24'0 0.0
2018-Feb-10 07:58N 33°39' E 130°24'0 0.0
2018-Feb-10 07:25N 33°39' E 130°24'0 0.0
2018-Feb-10 06:58N 33°39' E 130°24'0 0.0
2018-Feb-10 06:28N 33°39' E 130°24'0 0.0
2018-Feb-10 05:58N 33°39' E 130°24'0 0.0
2018-Feb-10 05:28N 33°39' E 130°24'0 0.0
2018-Feb-10 04:55N 33°39' E 130°24'0 0.0
2018-Feb-10 04:28N 33°39' E 130°24'0 0.0
2018-Feb-10 03:58N 33°39' E 130°24'0 0.0
2018-Feb-10 03:28N 33°39' E 130°24'0 0.0
2018-Feb-10 02:58N 33°39' E 130°24'0 0.0
2018-Feb-10 02:28N 33°39' E 130°24'0 0.0
2018-Feb-10 01:58N 33°39' E 130°24'0 0.0
2018-Feb-10 01:28N 33°39' E 130°24'0 0.0
2018-Feb-10 00:58N 33°39' E 130°24'0 0.0
2018-Feb-10 00:28N 33°39' E 130°24'1 2.2
2018-Feb-10 00:00N 33°39' E 130°23'5 9.2
2018-Feb-09 23:31N 33°39' E 130°18'3 5.8
2018-Feb-09 23:00N 33°41' E 130°16'1 5.7
2018-Feb-09 22:46N 33°43' E 130°15'2 7.5
2018-Feb-09 22:31N 33°44' E 130°14'23 9.3
2018-Feb-09 20:00N 34°02' E 130°33'1111.2
2018-Feb-09 19:01N 34°02' E 130°46'611.0
2018-Feb-09 18:30N 34°00' E 130°52'5 9.5
2018-Feb-09 18:00N 33°55' E 130°53'8 8.0
2018-Feb-09 17:00N 33°58' E 131°02'10 9.7
2018-Feb-09 16:01N 33°52' E 131°12'2214.5
2018-Feb-09 14:31N 33°47' E 131°38'713.6
2018-Feb-09 14:01N 33°44' E 131°45'714.5
2018-Feb-09 13:31N 33°38' E 131°48'714.7
2018-Feb-09 13:01N 33°31' E 131°52'35815.2
2018-Feb-08 13:30N 34°32' E 138°58'1818.4
2018-Feb-08 12:30N 34°46' E 139°13'3718.4
2018-Feb-08 10:30N 35°11' E 139°46'510.7
2018-Feb-08 10:00N 35°17' E 139°45'611.0
2018-Feb-08 09:30N 35°22' E 139°42'611.0
2018-Feb-08 09:00N 35°27' E 139°43'1 0.2
2018-Feb-08 01:30N 35°28' E 139°42'0 0.0
2018-Feb-08 01:00N 35°28' E 139°42'0 0.0
2018-Feb-08 00:30N 35°28' E 139°42'0 0.0
2018-Feb-08 00:00N 35°28' E 139°42'0 0.0
2018-Feb-07 23:30N 35°28' E 139°42'0 0.0
2018-Feb-07 23:00N 35°28' E 139°42'1 1.4
2018-Feb-07 22:30N 35°28' E 139°42'2 3.2
2018-Feb-07 21:53N 35°26' E 139°44'0 0.2
2018-Feb-07 21:29N 35°26' E 139°44'11 0.9
2018-Feb-07 09:30N 35°37' E 139°47'0 0.0
2018-Feb-07 09:00N 35°37' E 139°47'0 0.0
2018-Feb-07 08:24N 35°37' E 139°47'0 0.0
2018-Feb-07 08:00N 35°37' E 139°47'0 0.0
2018-Feb-07 07:30N 35°37' E 139°47'0 0.0
2018-Feb-07 06:57N 35°37' E 139°47'0 0.0
2018-Feb-07 06:30N 35°37' E 139°47'0 0.0
2018-Feb-07 05:57N 35°37' E 139°47'0 0.1
2018-Feb-07 05:30N 35°37' E 139°47'0 0.1
2018-Feb-07 04:57N 35°37' E 139°47'0 0.0
2018-Feb-07 04:15N 35°37' E 139°47'0 0.0
2018-Feb-07 03:57N 35°37' E 139°47'0 0.0
2018-Feb-07 03:27N 35°37' E 139°47'0 0.0
2018-Feb-07 02:57N 35°37' E 139°47'0 0.0
2018-Feb-07 02:21N 35°37' E 139°47'0 0.1
2018-Feb-07 01:57N 35°37' E 139°47'0 0.0
2018-Feb-07 01:27N 35°37' E 139°47'0 0.1
2018-Feb-07 01:00N 35°37' E 139°47'0 0.0
2018-Feb-07 00:30N 35°37' E 139°47'0 0.8
2018-Feb-07 00:00N 35°36' E 139°47'4 7.8
2018-Feb-06 23:30N 35°33' E 139°50'510.7
2018-Feb-06 23:00N 35°28' E 139°51'714.6
2018-Feb-06 22:30N 35°22' E 139°45'611.5
2018-Feb-06 22:00N 35°17' E 139°46'612.1
2018-Feb-06 21:30N 35°11' E 139°46'510.1
2018-Feb-06 21:00N 35°05' E 139°45'510.1
2018-Feb-06 20:30N 35°02' E 139°42'510.5
2018-Feb-06 20:00N 34°58' E 139°36'713.8
2018-Feb-06 19:30N 34°55' E 139°29'915.9
2018-Feb-06 18:58N 34°50' E 139°21'716.0
2018-Feb-06 18:30N 34°45' E 139°15'916.2
2018-Feb-06 17:58N 34°39' E 139°07'816.2
2018-Feb-06 17:28N 34°33' E 138°59'715.2
2018-Feb-06 17:00N 34°31' E 138°51'815.3
2018-Feb-06 16:28N 34°34' E 138°42'715.1
2018-Feb-06 16:00N 34°35' E 138°33'815.4
2018-Feb-06 15:30N 34°37' E 138°24'814.8
2018-Feb-06 14:56N 34°39' E 138°14'1 3.1
2018-Feb-06 14:29N 34°38' E 138°13'0 0.0
2018-Feb-06 09:03N 34°37' E 138°13'0 1.4
2018-Feb-06 09:00N 34°38' E 138°13'2 3.5
2018-Feb-06 08:27N 34°39' E 138°15'2 5.1
2018-Feb-06 08:00N 34°38' E 138°17'4 8.6
2018-Feb-06 07:30N 34°34' E 138°16'610.8
2018-Feb-06 07:00N 34°30' E 138°11'714.2
2018-Feb-06 06:30N 34°26' E 138°05'612.0
2018-Feb-06 06:00N 34°22' E 137°59'  

Dump ship's entire track history